Time;durP1;ratioP1;P1;durP2;ratioP2;P2;SDS_P1;SDS_P2;PMS_P1;PMS_P2;Temp;Humidity;BMP_temperature;BMP_pressure;BME280_temperature;BME280_humidity;BME280_pressure;Samples;Min_cycle;Max_cycle;Signal;HPM_P1;HPM_P2
2022/12/03 00:00:36;;;;;;;;;;;1.50;99.90;;;0.44;100.00;97301.25;5049378;28;20011;-38
2022/12/03 00:03:01;;;;;;;;;;;1.40;99.90;;;0.38;100.00;97303.84;5033700;28;19943;-38
2022/12/03 00:05:27;;;;;;;;;;;1.30;99.90;;;0.23;100.00;97285.66;5050938;28;19912;-38
2022/12/03 00:07:53;;;;;;;;;;;1.30;99.90;;;0.19;100.00;97296.00;5041842;28;20323;-38
2022/12/03 00:10:18;;;;;;;;;;;1.20;99.90;;;0.19;100.00;97295.16;5048655;28;21569;-38
2022/12/03 00:12:44;;;;;;;;;;;1.10;99.90;;;0.14;100.00;97299.47;5031357;28;20043;-38
2022/12/03 00:15:10;;;;;;;;;;;1.10;99.90;;;0.10;100.00;97305.50;5052963;28;19923;-38
2022/12/03 00:17:36;;;;;;;;;;;1.10;99.90;;;0.06;100.00;97299.44;5049701;28;20416;-38
2022/12/03 00:20:03;;;;;;;;;;;1.00;99.90;;;0.08;100.00;97302.91;5050183;28;19916;-38
2022/12/03 00:22:28;;;;;;;;;;;1.00;99.90;;;0.09;100.00;97309.84;5055548;28;19912;-38
2022/12/03 00:24:54;;;;;;;;;;;1.10;99.90;;;0.08;100.00;97297.72;5047766;28;19916;-38
2022/12/03 00:27:20;;;;;;;;;;;1.00;99.90;;;0.17;100.00;97305.53;5051964;28;19974;-38
2022/12/03 00:29:45;;;;;;;;;;;1.10;99.90;;;0.27;100.00;97305.53;5042768;28;19952;-38
2022/12/03 00:32:12;;;;;;;;;;;1.20;99.90;;;0.27;100.00;97301.25;5048510;28;19920;-38
2022/12/03 00:34:38;;;;;;;;;;;1.20;99.90;;;0.29;100.00;97303.84;5051895;28;19916;-38
2022/12/03 00:37:04;;;;;;;;;;;1.30;99.90;;;0.36;100.00;97303.00;5052771;28;19931;-38
2022/12/03 00:39:29;;;;;;;;;;;1.30;99.90;;;0.31;100.00;97295.19;5054646;28;19920;-38
2022/12/03 00:41:55;;;;;;;;;;;1.40;99.90;;;0.40;100.00;97304.72;5055366;28;19982;-38
2022/12/03 00:44:21;;;;;;;;;;;1.40;99.90;;;0.40;100.00;97291.75;5054959;28;20100;-38
2022/12/03 00:46:46;;;;;;;;;;;1.40;99.90;;;0.42;100.00;97299.53;5052602;28;19932;-38
2022/12/03 00:49:12;;;;;;;;;;;1.40;99.90;;;0.49;100.00;97299.53;5056069;28;19920;-38
2022/12/03 00:51:37;;;;;;;;;;;1.50;99.90;;;0.52;100.00;97309.94;5033545;28;20004;-38
2022/12/03 00:54:03;;;;;;;;;;;1.50;99.90;;;0.56;100.00;97303.88;5054854;28;20925;-38
2022/12/03 00:56:29;;;;;;;;;;;1.50;99.90;;;0.65;100.00;97304.75;5039464;28;19919;-38
2022/12/03 00:58:54;;;;;;;;;;;1.60;99.90;;;0.74;100.00;97310.81;5052712;28;19916;-38
2022/12/03 01:01:20;;;;;;;;;;;1.60;99.90;;;0.76;100.00;97297.84;5052968;28;19913;-38
2022/12/03 01:03:46;;;;;;;;;;;1.70;99.90;;;0.87;100.00;97311.66;5051300;28;19975;-38
2022/12/03 01:06:11;;;;;;;;;;;1.80;99.90;;;0.90;100.00;97306.47;5050855;28;20509;-38
2022/12/03 01:08:37;;;;;;;;;;;1.80;99.90;;;0.92;100.00;97304.75;5044273;28;19968;-38
2022/12/03 01:11:02;;;;;;;;;;;1.90;99.90;;;0.94;100.00;97304.75;5046542;28;19925;-38
2022/12/03 01:13:28;;;;;;;;;;;1.90;99.90;;;0.86;100.00;97284.00;5049532;28;19912;-38
2022/12/03 01:15:54;;;;;;;;;;;1.90;99.90;;;1.04;100.00;97305.59;5052284;28;20333;-38
2022/12/03 01:18:19;;;;;;;;;;;2.00;99.90;;;1.09;100.00;97304.72;5052982;28;19928;-38
2022/12/03 01:20:45;;;;;;;;;;;2.00;99.90;;;1.13;100.00;97309.06;5052078;28;20288;-38
2022/12/03 01:23:10;;;;;;;;;;;2.10;99.90;;;1.16;100.00;97313.38;5035735;28;20003;-38
2022/12/03 01:25:36;;;;;;;;;;;2.10;99.90;;;1.23;100.00;97315.09;5050905;28;19921;-38
2022/12/03 01:28:02;;;;;;;;;;;2.10;99.90;;;1.23;100.00;97304.72;5056833;28;19974;-38
2022/12/03 01:30:27;;;;;;;;;;;2.20;99.90;;;1.27;100.00;97309.03;5050611;28;20388;-38
2022/12/03 01:32:53;;;;;;;;;;;2.20;99.90;;;1.27;100.00;97305.56;5050958;28;19948;-38
2022/12/03 01:35:19;;;;;;;;;;;2.20;99.90;;;1.29;100.00;97309.03;5051639;28;19920;-38
2022/12/03 01:37:44;;;;;;;;;;;2.20;99.90;;;1.20;100.00;97290.88;5052364;28;19989;-37
2022/12/03 01:40:11;;;;;;;;;;;2.20;99.90;;;1.37;100.00;97312.50;5051188;28;19916;-38
2022/12/03 01:42:39;;;;;;;;;;;2.30;99.90;;;1.40;100.00;97311.59;5031594;28;20070;-38
2022/12/03 01:45:09;;;;;;;;;;;2.30;99.90;;;1.46;100.00;97314.22;5051245;28;19921;-38
2022/12/03 01:47:35;;;;;;;;;;;2.30;99.90;;;1.45;100.00;97310.72;5035304;28;19912;-38
2022/12/03 01:50:12;;;;;;;;;;;2.40;99.90;;;1.50;100.00;97314.19;5054032;28;19955;-38
2022/12/03 01:52:38;;;;;;;;;;;2.40;99.90;;;1.44;100.00;97302.97;5030032;28;19918;-38
2022/12/03 01:55:06;;;;;;;;;;;2.40;99.90;;;1.50;100.00;97306.38;5049374;28;21022;-38
2022/12/03 01:57:47;;;;;;;;;;;2.40;99.90;;;1.48;100.00;97304.66;5038008;28;19958;-38
2022/12/03 02:00:16;;;;;;;;;;;2.40;99.90;;;1.52;100.00;97316.78;5034095;28;19917;-38
2022/12/03 02:02:42;;;;;;;;;;;2.50;99.90;;;1.51;100.00;97307.28;5052354;28;19916;-38
2022/12/03 02:05:31;;;;;;;;;;;2.50;99.90;;;1.55;100.00;97315.94;5054067;28;19919;-38
2022/12/03 02:07:57;;;;;;;;;;;2.50;99.90;;;1.54;100.00;97322.84;5043649;28;19998;-38
2022/12/03 02:10:28;;;;;;;;;;;2.50;99.90;;;1.51;100.00;97309.88;5053779;28;20380;-38
2022/12/03 02:12:57;;;;;;;;;;;2.40;99.90;;;1.50;100.00;97311.59;5053240;28;20029;-38
2022/12/03 02:15:23;;;;;;;;;;;2.50;99.90;;;1.58;100.00;97308.97;5053516;28;20360;-38
2022/12/03 02:17:49;;;;;;;;;;;2.50;99.90;;;1.63;100.00;97308.94;5049644;28;20069;-38
2022/12/03 02:20:15;;;;;;;;;;;2.50;99.90;;;1.64;100.00;97305.50;5047048;28;19965;-38
2022/12/03 02:22:56;;;;;;;;;;;2.60;99.90;;;1.65;100.00;97308.09;5051738;28;19912;-38
2022/12/03 02:25:24;;;;;;;;;;;2.60;99.90;;;1.65;100.00;97308.09;5035119;28;19926;-38
2022/12/03 02:27:50;;;;;;;;;;;2.60;99.90;;;1.64;100.00;97305.50;5049896;28;19916;-38
2022/12/03 02:30:18;;;;;;;;;;;2.50;99.90;;;1.63;100.00;97303.75;5051436;28;19921;-38
2022/12/03 02:32:44;;;;;;;;;;;2.60;99.90;;;1.54;100.00;97294.25;5053357;28;19952;-38
2022/12/03 02:35:19;;;;;;;;;;;2.50;99.90;;;1.59;100.00;97302.91;5050176;28;20016;-38
2022/12/03 02:37:46;;;;;;;;;;;2.50;99.90;;;1.59;100.00;97302.91;5047724;28;19973;-38
2022/12/03 02:40:18;;;;;;;;;;;2.50;99.90;;;1.59;100.00;97292.50;5032796;28;20390;-38
2022/12/03 02:42:45;;;;;;;;;;;2.50;99.90;;;1.58;100.00;97303.78;5022249;28;20275;-38
2022/12/03 02:45:21;;;;;;;;;;;2.50;99.90;;;1.59;100.00;97305.50;5019522;28;20549;-38
2022/12/03 02:47:56;;;;;;;;;;;2.50;99.90;;;1.58;100.00;97303.78;5031468;28;19970;-38
2022/12/03 02:50:26;;;;;;;;;;;2.50;99.90;;;1.60;100.00;97309.84;5027712;28;19916;-38
2022/12/03 02:52:53;;;;;;;;;;;2.60;99.90;;;1.64;100.00;97303.75;5038329;28;20241;-38
2022/12/03 02:55:19;;;;;;;;;;;2.60;99.90;;;1.62;100.00;97292.50;5010884;28;19916;-38
2022/12/03 02:57:45;;;;;;;;;;;2.60;99.90;;;1.71;100.00;97308.06;5032813;28;20045;-38
2022/12/03 03:00:12;;;;;;;;;;;2.70;99.90;;;1.75;100.00;97313.25;5036704;28;19913;-38
2022/12/03 03:02:39;;;;;;;;;;;2.60;99.90;;;1.74;100.00;97314.13;5010419;28;19928;-38
2022/12/03 03:05:05;;;;;;;;;;;2.70;99.90;;;1.80;100.00;97317.56;5011182;28;19920;-38
2022/12/03 03:07:31;;;;;;;;;;;2.70;99.90;;;1.80;100.00;97306.31;5011128;28;20781;-38
2022/12/03 03:09:58;;;;;;;;;;;2.70;99.90;;;1.82;100.00;97307.16;5015876;28;19987;-38
2022/12/03 03:12:23;;;;;;;;;;;2.70;99.90;;;1.85;100.00;97313.22;5027429;28;19916;-38
2022/12/03 03:14:49;;;;;;;;;;;2.80;99.90;;;1.86;100.00;97312.34;5005452;28;20125;-38
2022/12/03 03:17:15;;;;;;;;;;;2.80;99.90;;;1.84;100.00;97316.69;5027442;28;19920;-38
2022/12/03 03:19:40;;;;;;;;;;;2.80;99.90;;;1.81;100.00;97303.72;5029362;28;19924;-38
2022/12/03 03:22:08;;;;;;;;;;;2.80;99.90;;;1.80;100.00;97311.53;5032821;28;20474;-38
2022/12/03 03:24:34;;;;;;;;;;;2.70;99.90;;;1.74;100.00;97295.91;5032304;28;19943;-38
2022/12/03 03:26:59;;;;;;;;;;;2.70;99.90;;;1.80;100.00;97308.91;5036566;28;20372;-37
2022/12/03 03:29:25;;;;;;;;;;;2.70;99.90;;;1.80;100.00;97306.31;5032463;28;21611;-38
2022/12/03 03:31:51;;;;;;;;;;;2.70;99.90;;;1.83;100.00;97306.28;5029597;28;19916;-38
2022/12/03 03:34:16;;;;;;;;;;;2.70;99.90;;;1.82;100.00;97310.63;5032167;28;19955;-38
2022/12/03 03:36:43;;;;;;;;;;;2.70;99.90;;;1.82;100.00;97305.44;5030787;28;20804;-38
2022/12/03 03:39:08;;;;;;;;;;;2.70;99.90;;;1.81;100.00;97297.63;5034299;28;19949;-38
2022/12/03 03:41:34;;;;;;;;;;;2.70;99.90;;;1.83;100.00;97303.69;5033999;28;20187;-38
2022/12/03 03:44:00;;;;;;;;;;;2.70;99.90;;;1.84;100.00;97301.09;5006641;28;19931;-38
2022/12/03 03:46:27;;;;;;;;;;;2.70;99.90;;;1.84;100.00;97302.81;5027269;28;19922;-38
2022/12/03 03:48:53;;;;;;;;;;;2.80;99.90;;;1.86;100.00;97306.28;5031444;28;19920;-38
2022/12/03 03:51:19;;;;;;;;;;;2.80;99.90;;;1.85;100.00;97299.38;5018875;28;20412;-38
2022/12/03 03:53:47;;;;;;;;;;;2.80;99.90;;;1.82;100.00;97302.81;5015114;28;19985;-38
2022/12/03 03:56:14;;;;;;;;;;;2.70;99.90;;;1.82;100.00;97304.56;5035781;28;20217;-38
2022/12/03 03:58:40;;;;;;;;;;;2.70;99.90;;;1.79;100.00;97300.22;5044154;28;19920;-38
2022/12/03 04:01:06;;;;;;;;;;;2.70;99.90;;;1.81;100.00;97295.91;5047240;28;19908;-38
2022/12/03 04:03:32;;;;;;;;;;;2.70;99.90;;;1.67;100.00;97274.28;5045192;28;20088;-38
2022/12/03 04:05:58;;;;;;;;;;;2.70;99.90;;;1.82;100.00;97294.16;5038952;28;19912;-38
2022/12/03 04:08:24;;;;;;;;;;;2.70;99.90;;;1.81;100.00;97298.50;5042875;28;20549;-38
2022/12/03 04:13:34;;;;;;;;;;;2.70;99.90;;;1.79;100.00;97292.44;5047904;28;20011;-38
2022/12/03 04:15:59;;;;;;;;;;;2.70;99.90;;;1.76;100.00;97289.88;5045387;28;20192;-38
2022/12/03 04:18:43;;;;;;;;;;;2.70;99.90;;;1.79;100.00;97288.97;5076918;22;20010;-60
2022/12/03 04:23:58;;;;;;;;;;;2.70;99.90;;;1.81;100.00;97285.50;5090202;28;19965;-61
2022/12/03 04:29:08;;;;;;;;;;;2.70;99.90;;;1.82;100.00;97279.41;5056231;28;19931;-60
2022/12/03 04:37:03;;;;;;;;;;;2.70;99.90;;;1.87;100.00;97292.41;5050080;28;19972;-60
2022/12/03 04:39:28;;;;;;;;;;;2.80;99.90;;;1.87;100.00;97290.69;5066406;28;20236;-60
2022/12/03 04:41:54;;;;;;;;;;;2.80;99.90;;;1.87;100.00;97285.47;5062468;28;19915;-60
2022/12/03 04:44:32;;;;;;;;;;;2.80;99.90;;;1.88;100.00;97287.22;5054435;28;19924;-60
2022/12/03 04:47:12;;;;;;;;;;;2.80;99.90;;;1.96;100.00;97281.13;5047330;28;19943;-60
2022/12/03 04:49:42;;;;;;;;;;;2.80;99.90;;;1.96;100.00;97283.72;5045920;28;20178;-60
2022/12/03 04:52:09;;;;;;;;;;;2.80;99.90;;;1.97;100.00;97285.44;5066833;28;19923;-60
2022/12/03 04:54:35;;;;;;;;;;;2.90;99.90;;;1.98;100.00;97288.03;5042583;28;19974;-60
2022/12/03 04:57:00;;;;;;;;;;;2.90;99.90;;;1.99;100.00;97291.47;5062626;28;19927;-60
2022/12/03 04:59:26;;;;;;;;;;;2.90;99.90;;;1.98;100.00;97287.16;5061929;28;19916;-60
2022/12/03 05:01:52;;;;;;;;;;;2.90;99.90;;;1.97;100.00;97278.47;5063390;28;20422;-58
2022/12/03 05:04:18;;;;;;;;;;;2.90;99.90;;;1.97;100.00;97275.88;5053086;28;20564;-58
2022/12/03 05:06:43;;;;;;;;;;;2.90;99.90;;;1.97;100.00;97275.88;5052294;28;19947;-58
2022/12/03 05:09:09;;;;;;;;;;;2.90;99.90;;;1.91;100.00;97268.13;5046519;28;20035;-58
2022/12/03 05:11:35;;;;;;;;;;;2.80;99.90;;;1.96;100.00;97270.72;5047877;28;20298;-58
2022/12/03 05:14:00;;;;;;;;;;;2.80;99.90;;;1.94;100.00;97268.13;5042699;28;20392;-58
2022/12/03 05:16:26;;;;;;;;;;;2.90;99.90;;;1.91;100.00;97276.78;5039053;28;20472;-59
2022/12/03 05:18:52;;;;;;;;;;;2.80;99.90;;;1.89;100.00;97275.91;5045869;28;19974;-59
2022/12/03 05:21:17;;;;;;;;;;;2.80;99.90;;;1.90;100.00;97281.97;5055835;28;19922;-58
2022/12/03 05:23:43;;;;;;;;;;;2.80;99.90;;;1.77;100.00;97256.91;5052069;28;20419;-58
2022/12/03 05:26:09;;;;;;;;;;;2.80;99.90;;;1.90;100.00;97276.78;5047863;28;19919;-58
2022/12/03 05:28:34;;;;;;;;;;;2.80;99.90;;;1.81;100.00;97249.09;5049617;28;19920;-58
2022/12/03 05:31:00;;;;;;;;;;;2.80;99.90;;;1.91;100.00;97268.13;5047487;28;20104;-58
2022/12/03 05:33:26;;;;;;;;;;;2.80;99.90;;;1.89;100.00;97270.72;5044080;28;19945;-58
2022/12/03 05:35:51;;;;;;;;;;;2.80;99.90;;;1.91;100.00;97262.91;5046654;28;20108;-59
2022/12/03 05:38:17;;;;;;;;;;;2.80;99.90;;;1.92;100.00;97259.47;5050399;28;20329;-58
2022/12/03 05:40:43;;;;;;;;;;;2.80;99.90;;;1.89;100.00;97251.66;5050696;28;20155;-58
2022/12/03 05:43:08;;;;;;;;;;;2.80;99.90;;;1.89;100.00;97254.25;5048607;28;20244;-58
2022/12/03 05:45:36;;;;;;;;;;;2.80;99.90;;;1.90;100.00;97255.97;5043460;28;19920;-58
2022/12/03 05:48:03;;;;;;;;;;;2.80;99.90;;;1.90;100.00;97263.78;5047067;28;20463;-58
2022/12/03 05:50:31;;;;;;;;;;;2.80;99.90;;;1.78;100.00;97251.72;5047566;28;20346;-58
2022/12/03 05:52:57;;;;;;;;;;;2.80;99.90;;;1.87;100.00;97261.22;5051501;28;20502;-58
2022/12/03 05:55:24;;;;;;;;;;;2.80;99.90;;;1.84;100.00;97251.66;5048615;28;20379;-58
2022/12/03 05:57:49;;;;;;;;;;;2.80;99.90;;;1.91;100.00;97266.38;5061896;28;20307;-58
2022/12/03 06:00:21;;;;;;;;;;;2.80;99.90;;;1.93;100.00;97255.97;5067740;28;19923;-58
2022/12/03 06:02:47;;;;;;;;;;;2.90;99.90;;;1.89;100.00;97265.53;5051973;28;19920;-59
2022/12/03 06:05:13;;;;;;;;;;;2.90;99.90;;;1.91;100.00;97262.91;5051720;28;19996;-58
2022/12/03 06:07:39;;;;;;;;;;;2.90;99.90;;;1.93;100.00;97263.78;5056316;28;19923;-61
2022/12/03 06:10:06;;;;;;;;;;;2.80;99.90;;;1.83;100.00;97243.88;5067986;28;20296;-58
2022/12/03 06:12:32;;;;;;;;;;;2.80;99.90;;;1.93;100.00;97265.50;5067368;28;19912;-58
2022/12/03 06:14:58;;;;;;;;;;;2.80;99.90;;;1.93;100.00;97263.78;5066867;28;19919;-59
2022/12/03 06:17:24;;;;;;;;;;;2.90;99.90;;;1.89;100.00;97256.88;5068354;28;19920;-59
2022/12/03 06:19:50;;;;;;;;;;;2.80;99.90;;;1.97;100.00;97262.88;5072451;28;20307;-59
2022/12/03 06:22:15;;;;;;;;;;;2.90;99.90;;;1.98;100.00;97269.81;5072590;28;19928;-58
2022/12/03 06:24:41;;;;;;;;;;;2.90;99.90;;;2.04;100.00;97276.72;5054757;28;19915;-58
2022/12/03 06:27:06;;;;;;;;;;;2.90;99.90;;;1.99;100.00;97265.47;5057479;28;21087;-58
2022/12/03 06:29:32;;;;;;;;;;;2.90;99.90;;;1.93;100.00;97271.56;5051661;28;19919;-58
2022/12/03 06:31:58;;;;;;;;;;;2.90;99.90;;;1.94;100.00;97273.31;5047169;28;19919;-60
2022/12/03 06:34:23;;;;;;;;;;;2.90;99.90;;;1.95;100.00;97275.03;5040952;28;20179;-58
2022/12/03 06:36:49;;;;;;;;;;;2.90;99.90;;;1.90;100.00;97268.97;5045665;28;19928;-58
2022/12/03 06:39:15;;;;;;;;;;;2.90;99.90;;;1.94;100.00;97282.81;5044656;28;19975;-60
2022/12/03 06:41:41;;;;;;;;;;;2.90;99.90;;;1.94;100.00;97286.31;5043693;28;19974;-60
2022/12/03 06:44:07;;;;;;;;;;;2.90;99.90;;;1.94;100.00;97282.81;5042279;28;20156;-60
2022/12/03 06:46:32;;;;;;;;;;;2.80;99.90;;;1.90;100.00;97279.38;5045928;28;20058;-60
2022/12/03 06:48:58;;;;;;;;;;;2.80;99.90;;;1.91;100.00;97296.72;5043251;28;19966;-60
2022/12/03 06:51:24;;;;;;;;;;;2.90;99.90;;;1.90;100.00;97289.78;5050718;28;19927;-60
2022/12/03 06:53:49;;;;;;;;;;;2.80;99.90;;;1.91;100.00;97297.59;5047547;28;21143;-60
2022/12/03 06:56:15;;;;;;;;;;;2.80;99.90;;;1.85;100.00;97287.22;5053070;28;20346;-60
2022/12/03 06:58:41;;;;;;;;;;;2.80;99.90;;;1.96;100.00;97283.72;5062203;28;19921;-60
2022/12/03 07:01:06;;;;;;;;;;;2.80;99.90;;;1.97;100.00;97296.69;5059641;28;20300;-61
2022/12/03 07:03:32;;;;;;;;;;;2.90;99.90;;;1.92;100.00;97280.25;5071531;28;19943;-60
2022/12/03 07:05:57;;;;;;;;;;;2.90;99.90;;;2.00;100.00;97288.03;5045390;28;19927;-60
2022/12/03 07:08:23;;;;;;;;;;;2.90;99.90;;;2.04;100.00;97279.31;5047559;28;19959;-60
2022/12/03 07:10:49;;;;;;;;;;;2.90;99.90;;;2.03;100.00;97281.06;5050797;28;20035;-60
2022/12/03 07:13:14;;;;;;;;;;;3.00;99.90;;;2.03;100.00;97275.88;5043235;28;19919;-60
2022/12/03 07:15:40;;;;;;;;;;;2.90;99.90;;;2.05;100.00;97268.91;5049222;28;20320;-60
2022/12/03 07:18:05;;;;;;;;;;;3.00;99.90;;;2.12;100.00;97266.25;5050988;28;19931;-60
2022/12/03 07:20:31;;;;;;;;;;;3.00;99.90;;;2.05;100.00;97274.13;5050281;28;19920;-61
2022/12/03 07:22:57;;;;;;;;;;;3.00;99.90;;;2.05;100.00;97276.72;5045860;28;20041;-61
2022/12/03 07:25:22;;;;;;;;;;;3.00;99.90;;;2.05;100.00;97275.88;5050927;28;20641;-60
2022/12/03 07:27:48;;;;;;;;;;;3.00;99.90;;;2.04;100.00;97280.19;5043478;28;20167;-60
2022/12/03 07:30:14;;;;;;;;;;;3.00;99.90;;;2.05;100.00;97275.88;5043546;28;20424;-60
2022/12/03 07:32:40;;;;;;;;;;;3.00;99.90;;;2.12;100.00;97287.06;5049047;28;19920;-60
2022/12/03 07:35:06;;;;;;;;;;;3.00;99.90;;;2.04;100.00;97267.16;5061863;27;19988;-58
2022/12/03 07:37:33;;;;;;;;;;;3.00;99.90;;;2.17;100.00;97281.00;5045883;28;19920;-58
2022/12/03 07:39:58;;;;;;;;;;;3.10;99.90;;;2.24;100.00;97266.19;5050143;28;20141;-58
2022/12/03 07:42:24;;;;;;;;;;;3.10;99.90;;;2.22;100.00;97276.59;5043801;28;20254;-59
2022/12/03 07:44:50;;;;;;;;;;;3.10;99.90;;;2.21;100.00;97280.09;5045008;28;20630;-59
2022/12/03 07:47:16;;;;;;;;;;;3.10;99.90;;;2.19;100.00;97267.97;5043675;28;19941;-59
2022/12/03 07:49:41;;;;;;;;;;;3.10;99.90;;;2.26;100.00;97273.13;5046184;28;20010;-59
2022/12/03 07:52:07;;;;;;;;;;;3.20;99.90;;;2.26;100.00;97272.25;5063205;28;19993;-59
2022/12/03 07:54:33;;;;;;;;;;;3.20;99.90;;;2.32;100.00;97267.03;5058412;28;19988;-59
2022/12/03 07:56:58;;;;;;;;;;;3.20;99.90;;;2.32;100.00;97261.81;5050556;28;19922;-59
2022/12/03 07:59:24;;;;;;;;;;;3.30;99.90;;;2.33;100.00;97265.28;5053619;28;20026;-59
2022/12/03 08:01:50;;;;;;;;;;;3.30;99.90;;;2.35;100.00;97268.72;5052514;28;19927;-59
2022/12/03 08:04:17;;;;;;;;;;;3.30;99.90;;;2.37;100.00;97272.19;5059279;28;19912;-59
2022/12/03 08:06:44;;;;;;;;;;;3.30;99.90;;;2.40;100.00;97269.56;5059627;28;19980;-59
2022/12/03 08:09:10;;;;;;;;;;;3.30;99.90;;;2.28;100.00;97253.16;5070431;28;19958;-59
2022/12/03 08:11:36;;;;;;;;;;;3.30;99.90;;;2.41;100.00;97269.56;5070246;28;19951;-59
2022/12/03 08:14:10;;;;;;;;;;;3.30;99.90;;;2.45;100.00;97267.81;5066917;28;20265;-52
2022/12/03 08:16:38;;;;;;;;;;;3.30;99.90;;;2.45;100.00;97278.22;5066277;28;19912;-60
2022/12/03 08:19:04;;;;;;;;;;;3.40;99.90;;;2.46;100.00;97279.97;5063702;28;20443;-60
2022/12/03 08:21:33;;;;;;;;;;;3.40;99.90;;;2.46;100.00;97280.81;5075001;28;19911;-60
2022/12/03 08:24:14;;;;;;;;;;;3.40;99.90;;;2.53;100.00;97279.03;5062388;28;19935;-60
2022/12/03 08:26:40;;;;;;;;;;;3.40;99.90;;;2.51;100.00;97272.09;5056591;28;19923;-60
2022/12/03 08:29:16;;;;;;;;;;;3.40;99.90;;;2.45;100.00;97262.59;5072250;28;19927;-60
2022/12/03 08:31:46;;;;;;;;;;;3.40;99.90;;;2.56;100.00;97273.78;5070133;28;19913;-60
2022/12/03 08:34:18;;;;;;;;;;;3.50;99.90;;;2.55;100.00;97279.00;5069104;28;19912;-60
2022/12/03 08:36:44;;;;;;;;;;;3.50;99.90;;;2.53;100.00;97273.84;5062350;28;19927;-60
2022/12/03 08:39:34;;;;;;;;;;;3.40;99.90;;;2.55;100.00;97274.69;5074437;28;19921;-60
2022/12/03 08:44:54;;;;;;;;;;;3.50;99.90;;;2.57;100.00;97274.69;5070041;28;20413;-60
2022/12/03 08:47:21;;;;;;;;;;;3.50;99.90;;;2.59;100.00;97272.91;5070823;28;19916;-60
2022/12/03 08:50:02;;;;;;;;;;;3.50;99.90;;;2.60;100.00;97274.63;5071989;28;19951;-61
2022/12/03 08:52:32;;;;;;;;;;;3.50;99.90;;;2.58;100.00;97265.97;5069040;28;20323;-61
2022/12/03 08:54:59;;;;;;;;;;;3.50;99.90;;;2.58;100.00;97271.19;5072622;28;20355;-60
2022/12/03 08:57:30;;;;;;;;;;;3.50;99.90;;;2.57;100.00;97264.25;5072712;28;19920;-61
2022/12/03 09:00:19;;;;;;;;;;;3.50;99.90;;;2.45;100.00;97246.97;5070495;28;20163;-61
2022/12/03 09:02:47;;;;;;;;;;;3.50;99.90;;;2.56;100.00;97259.91;5071070;28;20505;-61
2022/12/03 09:05:18;;;;;;;;;;;3.50;99.90;;;2.54;100.00;97267.72;5071710;28;19920;-60
2022/12/03 09:07:43;;;;;;;;;;;3.40;99.90;;;2.54;100.00;97270.34;5070294;28;19912;-61
2022/12/03 09:10:09;;;;;;;;;;;3.50;99.90;;;2.46;100.00;97262.59;5070567;28;19973;-61
2022/12/03 09:12:35;;;;;;;;;;;3.50;99.90;;;2.52;100.00;97282.50;5072789;28;20066;-59
2022/12/03 09:15:00;;;;;;;;;;;3.40;99.90;;;2.47;100.00;97263.44;5087807;28;19938;-60
2022/12/03 09:17:26;;;;;;;;;;;3.40;99.90;;;2.54;100.00;97279.91;5072368;28;19915;-60
2022/12/03 09:19:52;;;;;;;;;;;3.40;99.90;;;2.55;100.00;97282.50;5071288;28;19985;-60
2022/12/03 09:22:17;;;;;;;;;;;3.50;99.90;;;2.54;100.00;97282.50;5066164;28;20384;-59
2022/12/03 09:24:43;;;;;;;;;;;3.50;99.90;;;2.52;100.00;97284.25;5067668;28;19954;-59
2022/12/03 09:27:09;;;;;;;;;;;3.40;99.90;;;2.50;100.00;97286.00;5063679;28;19946;-60
2022/12/03 09:29:34;;;;;;;;;;;3.40;99.90;;;2.45;100.00;97280.81;5064424;28;19962;-60
2022/12/03 09:32:00;;;;;;;;;;;3.40;99.90;;;2.48;100.00;97281.66;5072985;28;19955;-60
2022/12/03 09:34:25;;;;;;;;;;;3.40;99.90;;;2.44;100.00;97279.97;5070909;28;20291;-60
2022/12/03 09:36:51;;;;;;;;;;;3.40;99.90;;;2.46;100.00;97282.56;5052510;28;19927;-59
2022/12/03 09:39:17;;;;;;;;;;;3.40;99.90;;;2.52;100.00;97276.44;5059360;28;20015;-60
2022/12/03 09:41:43;;;;;;;;;;;3.40;99.90;;;2.55;100.00;97273.78;5072787;28;19911;-59
2022/12/03 09:44:09;;;;;;;;;;;3.40;99.90;;;2.55;100.00;97266.88;5065396;27;20572;-59
2022/12/03 09:46:36;;;;;;;;;;;3.40;99.90;;;2.46;100.00;97260.00;5044487;28;19915;-59
2022/12/03 09:49:02;;;;;;;;;;;3.50;99.90;;;2.54;100.00;97252.13;5054363;28;20363;-59
2022/12/03 09:51:32;;;;;;;;;;;3.50;99.90;;;2.55;100.00;97252.97;5057446;28;20042;-59
2022/12/03 09:53:59;;;;;;;;;;;3.50;99.90;;;2.70;100.00;97252.00;5052984;28;20018;-59
2022/12/03 09:56:24;;;;;;;;;;;3.60;99.90;;;2.82;100.00;97250.16;5048403;28;19920;-59
2022/12/03 09:58:50;;;;;;;;;;;3.70;99.90;;;2.93;100.00;97250.06;5049017;28;20335;-59
2022/12/03 10:01:16;;;;;;;;;;;3.90;99.90;;;3.02;100.00;97251.72;5058899;28;20332;-59
2022/12/03 10:03:45;;;;;;;;;;;3.90;99.90;;;3.18;100.00;97261.13;5085670;27;19916;-59
2022/12/03 10:06:17;;;;;;;;;;;4.10;99.90;;;3.23;100.00;97261.94;5067817;28;20098;-59
2022/12/03 10:08:47;;;;;;;;;;;4.20;99.90;;;3.29;100.00;97260.16;5086042;27;19912;-58
2022/12/03 10:11:13;;;;;;;;;;;4.20;99.90;;;3.31;100.00;97261.00;5061236;28;19920;-59
2022/12/03 10:13:39;;;;;;;;;;;4.30;99.90;;;3.32;100.00;97260.09;5062634;28;20382;-59
2022/12/03 10:16:08;;;;;;;;;;;4.30;99.90;;;3.32;100.00;97263.59;5050506;28;21313;-59
2022/12/03 10:18:34;;;;;;;;;;;4.30;99.90;;;3.35;100.00;97265.28;5071309;22;19935;-40
2022/12/03 10:20:59;;;;;;;;;;;4.20;99.90;;;3.28;100.00;97261.03;5044008;28;19912;-40
2022/12/03 10:23:29;;;;;;;;;;;4.20;99.90;;;3.24;100.00;97258.44;5048794;28;19912;-40
2022/12/03 10:25:57;;;;;;;;;;;4.10;99.90;;;3.19;100.00;97247.19;5061103;28;19920;-40
2022/12/03 10:28:40;;;;;;;;;;;4.10;99.90;;;3.18;100.00;97244.63;5039533;28;19920;-40
2022/12/03 10:31:09;;;;;;;;;;;4.20;99.90;;;3.19;100.00;97260.22;5047719;28;19923;-40
2022/12/03 10:33:37;;;;;;;;;;;4.10;99.90;;;3.05;100.00;97252.56;5044899;28;20111;-40
2022/12/03 10:36:22;;;;;;;;;;;4.00;99.90;;;3.05;100.00;97260.38;5043776;28;19952;-40
2022/12/03 10:39:11;;;;;;;;;;;4.00;99.90;;;3.01;100.00;97252.59;5054697;28;19921;-40
2022/12/03 10:41:37;;;;;;;;;;;4.00;99.90;;;2.96;100.00;97251.75;5040039;28;19973;-40
2022/12/03 10:44:15;;;;;;;;;;;3.90;99.90;;;2.88;100.00;97248.38;5044965;28;20320;-40
2022/12/03 10:46:41;;;;;;;;;;;3.90;99.90;;;2.87;100.00;97242.28;5046428;28;19920;-40
2022/12/03 10:49:15;;;;;;;;;;;3.80;99.90;;;2.89;100.00;97239.69;5036164;28;19939;-40
2022/12/03 10:51:42;;;;;;;;;;;3.80;99.90;;;2.84;100.00;97237.97;5033534;28;19927;-40
2022/12/03 10:54:43;;;;;;;;;;;3.80;99.90;;;2.86;100.00;97231.00;5045915;28;19912;-40
2022/12/03 10:57:09;;;;;;;;;;;3.80;99.90;;;2.85;100.00;97226.69;5054912;28;20185;-40
2022/12/03 10:59:35;;;;;;;;;;;3.80;99.90;;;2.93;100.00;97229.22;5053691;28;19919;-40
2022/12/03 11:02:02;;;;;;;;;;;3.80;99.90;;;2.93;100.00;97223.16;5054561;28;19919;-40
2022/12/03 11:04:31;;;;;;;;;;;3.80;99.90;;;2.90;100.00;97215.38;5054215;28;19935;-40
2022/12/03 11:06:57;;;;;;;;;;;3.80;99.90;;;2.88;100.00;97215.38;5056487;28;20338;-40
2022/12/03 11:09:30;;;;;;;;;;;3.80;99.90;;;2.86;100.00;97210.19;5057376;28;19908;-40
2022/12/03 11:12:03;;;;;;;;;;;3.80;99.90;;;2.86;100.00;97212.78;5074402;28;19983;-40
2022/12/03 11:14:48;;;;;;;;;;;3.70;99.90;;;2.80;100.00;97209.38;5057887;28;20046;-40
2022/12/03 11:17:38;;;;;;;;;;;3.80;99.90;;;2.82;100.00;97211.09;5055080;28;19923;-40
2022/12/03 11:20:06;;;;;;;;;;;3.70;99.90;;;2.79;100.00;97202.44;5055197;28;20439;-39
2022/12/03 11:22:39;;;;;;;;;;;3.70;99.90;;;2.82;100.00;97205.88;5056879;28;19915;-39
2022/12/03 11:25:45;;;;;;;;;;;3.70;99.90;;;2.84;100.00;97200.66;5053980;28;19916;-40
2022/12/03 11:28:11;;;;;;;;;;;3.70;99.90;;;2.79;100.00;97195.50;5032700;28;20072;-40
2022/12/03 11:30:55;;;;;;;;;;;3.70;99.90;;;2.87;100.00;97195.41;5054984;28;19927;-39
2022/12/03 11:33:32;;;;;;;;;;;3.70;99.90;;;2.78;100.00;97198.09;5054352;28;20003;-39
2022/12/03 11:36:09;;;;;;;;;;;3.70;99.90;;;2.78;100.00;97196.38;5052417;28;20449;-40
2022/12/03 11:38:39;;;;;;;;;;;3.70;99.90;;;2.79;100.00;97202.44;5054554;28;19931;-39
2022/12/03 11:41:22;;;;;;;;;;;3.70;99.90;;;2.79;100.00;97198.09;5054789;28;20055;-39
2022/12/03 11:43:51;;;;;;;;;;;3.70;99.90;;;2.77;100.00;97201.59;5055403;28;19965;-40